KVIH/VIH METAR and TAF weather

Enter ICAO airport designator
Station Type Date Time Source
KVIH METAR 2019/04/25 11:53 UTC NOAA

KVIH 251153Z AUTO 03005KT 1/2SM FG VV002 14/13 A2978 RMK AO2 SLP080 60000 70014 T01440133 10144 20139 55001


Station Type Date Time Source
KVIH Decoded METAR 2019/04/25 11:53 UTC NOAA

ROLLA/VICHY ROLLA NATIONAL, MO, United States (KVIH) 38-08N 91-46W 333M
Apr 25, 2019 - 07:53 AM EDT / 2019.04.25 1153 UTC
Wind: from the NNE (030 degrees) at 6 MPH (5 KT):0
Visibility: 1/2 mile(s):0
Sky conditions: obscured
Weather: fog
Temperature: 57.9 F (14.4 C)
Dew Point: 55.9 F (13.3 C)
Relative Humidity: 93%
Pressure (altimeter): 29.78 in. Hg (1008 hPa)
Pressure tendency: 0.00 inches (0.1 hPa) lower than three hours ago
ob: KVIH 251153Z AUTO 03005KT 1/2SM FG VV002 14/13 A2978 RMK AO2 SLP080 60000 70014 T01440133 10144 20139 55001
cycle: 12

Station Type Date Time Source
KVIH TAF UTC NOAA

Error!

Example: see airport list